createdAt,value
2016-12-16T00:00:48.953Z,6.25
2016-12-16T00:02:22.816Z,6.16
2016-12-16T00:03:56.437Z,6.01
2016-12-16T00:05:30.081Z,6.17
2016-12-16T00:07:04.130Z,6.19
2016-12-16T00:08:37.918Z,6.19
2016-12-16T00:10:31.309Z,6.16
2016-12-16T00:12:00.219Z,6.2
2016-12-16T00:13:15.500Z,6.16
2016-12-16T00:14:49.286Z,6.1
2016-12-16T00:16:43.140Z,6.09
2016-12-16T00:18:16.578Z,6.09
2016-12-16T00:19:49.881Z,6.2
2016-12-16T00:21:23.447Z,6.16
2016-12-16T00:23:01.874Z,6.17
2016-12-16T00:24:59.435Z,6.2
2016-12-16T00:26:40.680Z,6.2
2016-12-16T00:28:40.269Z,6.02
2016-12-16T00:30:19.358Z,5.99
2016-12-16T00:31:49.208Z,6.02
2016-12-16T00:33:23.004Z,6.25
2016-12-16T00:34:56.709Z,6.17
2016-12-16T00:36:30.303Z,6.15
2016-12-16T00:38:24.271Z,6.2
2016-12-16T00:39:57.676Z,6.26
2016-12-16T00:41:31.816Z,6.31
2016-12-16T00:43:05.418Z,6.26
2016-12-16T00:44:39.038Z,6.25
2016-12-16T00:46:13.180Z,6.25
2016-12-16T00:47:47.330Z,6.31
2016-12-16T00:49:21.070Z,6.34
2016-12-16T00:50:51.111Z,6.31
2016-12-16T00:52:24.777Z,6.28
2016-12-16T00:53:58.545Z,6.25
2016-12-16T00:55:31.865Z,6.34
2016-12-16T00:57:05.398Z,6.28
2016-12-16T00:58:40.043Z,6.17
2016-12-16T01:00:13.673Z,6.26
2016-12-16T01:01:47.176Z,6.25
2016-12-16T01:03:15.614Z,6.36
2016-12-16T01:04:49.173Z,6.25
2016-12-16T01:06:22.722Z,6.2
2016-12-16T01:07:55.993Z,6.32
2016-12-16T01:09:29.566Z,6.31
2016-12-16T01:11:02.832Z,6.32
2016-12-16T01:12:36.546Z,6.29
2016-12-16T01:14:10.102Z,6.26
2016-12-16T01:15:43.826Z,6.28
2016-12-16T01:17:17.332Z,6.25
2016-12-16T01:18:50.691Z,6.28
2016-12-16T01:20:24.547Z,6.19
2016-12-16T01:21:57.835Z,6.13
2016-12-16T01:23:50.678Z,6.26
2016-12-16T01:25:24.230Z,6.19
2016-12-16T01:26:57.514Z,6.31
2016-12-16T01:28:31.415Z,6.31
2016-12-16T01:30:04.766Z,6.2
2016-12-16T01:31:38.352Z,6.19
2016-12-16T01:33:11.867Z,6.32
2016-12-16T01:34:45.475Z,6.31
2016-12-16T01:36:21.089Z,6.2
2016-12-16T01:37:54.819Z,6.15
2016-12-16T01:39:28.149Z,6.01
2016-12-16T01:41:01.887Z,6.17
2016-12-16T01:42:35.202Z,6.05
2016-12-16T01:44:08.480Z,6.12
2016-12-16T01:45:42.435Z,6.17
2016-12-16T01:47:15.953Z,6.25
2016-12-16T01:49:08.956Z,6.17
2016-12-16T01:50:42.884Z,6.16
2016-12-16T01:52:16.291Z,6.17
2016-12-16T01:53:49.803Z,6.25
2016-12-16T01:55:23.512Z,6.17
2016-12-16T01:56:57.349Z,6.15
2016-12-16T01:58:30.739Z,6.19
2016-12-16T02:00:04.499Z,6.02
2016-12-16T02:01:38.468Z,5.94
2016-12-16T02:03:39.235Z,6.01
2016-12-16T02:05:13.160Z,6.02
2016-12-16T02:06:46.460Z,6.06
2016-12-16T02:08:19.973Z,6.05
2016-12-16T02:09:53.524Z,5.98
2016-12-16T02:11:26.831Z,6.13
2016-12-16T02:13:00.478Z,6.15
2016-12-16T02:14:34.007Z,6.25
2016-12-16T02:16:03.814Z,6.32
2016-12-16T02:17:37.398Z,6.16
2016-12-16T02:19:10.962Z,6.34
2016-12-16T02:20:44.691Z,6.31
2016-12-16T02:22:18.332Z,6.36
2016-12-16T02:23:51.987Z,6.39
2016-12-16T02:25:25.732Z,6.25
2016-12-16T02:26:59.380Z,6.2
2016-12-16T02:28:33.291Z,6.01
2016-12-16T02:30:07.197Z,6.05
2016-12-16T02:31:40.694Z,6.02
2016-12-16T02:33:13.945Z,6.12
2016-12-16T02:35:07.989Z,6.15
2016-12-16T02:36:41.515Z,5.99
2016-12-16T02:38:14.770Z,6.07
2016-12-16T02:39:48.082Z,6.06
2016-12-16T02:41:22.308Z,6.07
2016-12-16T02:42:56.202Z,6.02
2016-12-16T02:44:29.881Z,6.07
2016-12-16T02:46:03.157Z,6.07
2016-12-16T02:47:37.325Z,6.02
2016-12-16T02:49:10.860Z,6.16
2016-12-16T02:50:44.353Z,6.09
2016-12-16T02:52:45.575Z,6.09
2016-12-16T02:54:19.091Z,6.02
2016-12-16T02:55:52.593Z,6.05
2016-12-16T02:57:26.197Z,6.17
2016-12-16T02:59:00.063Z,6.19
2016-12-16T03:00:33.609Z,6.25
2016-12-16T03:02:06.842Z,6.31
2016-12-16T03:03:40.400Z,6.41
2016-12-16T03:05:14.292Z,6.34
2016-12-16T03:06:48.466Z,6.31
2016-12-16T03:08:41.345Z,6.28
2016-12-16T03:10:14.590Z,6.28
2016-12-16T03:11:48.945Z,6.41
2016-12-16T03:13:22.205Z,6.46
2016-12-16T03:14:58.378Z,6.47
2016-12-16T03:16:31.738Z,6.39
2016-12-16T03:18:05.873Z,6.28
2016-12-16T03:19:39.165Z,6.32
2016-12-16T03:21:12.678Z,6.25
2016-12-16T03:22:46.293Z,6.29
2016-12-16T03:24:19.808Z,6.29
2016-12-16T03:26:17.521Z,6.26
2016-12-16T03:28:18.660Z,6.46
2016-12-16T03:30:01.820Z,6.39
2016-12-16T03:32:02.996Z,6.47
2016-12-16T03:33:56.796Z,6.49
2016-12-16T03:35:33.341Z,6.46
2016-12-16T03:37:08.244Z,6.6
2016-12-16T03:38:41.927Z,6.64
2016-12-16T03:40:15.218Z,6.64
2016-12-16T03:41:49.056Z,6.39
2016-12-16T03:43:23.005Z,6.41
2016-12-16T03:44:56.364Z,6.38
2016-12-16T03:46:29.661Z,6.38
2016-12-16T03:47:59.166Z,6.44
2016-12-16T03:49:32.983Z,6.39
2016-12-16T03:51:07.438Z,6.43
2016-12-16T03:52:41.046Z,6.44
2016-12-16T03:54:14.301Z,6.41
2016-12-16T03:55:47.904Z,6.41
2016-12-16T03:57:21.706Z,6.43
2016-12-16T03:58:54.948Z,6.36
2016-12-16T04:00:29.198Z,6.38
2016-12-16T04:02:03.678Z,6.31
2016-12-16T04:03:56.663Z,6.22
2016-12-16T04:05:29.918Z,6.15
2016-12-16T04:07:03.542Z,6.22
2016-12-16T04:08:36.828Z,6.29
2016-12-16T04:10:10.452Z,6.26
2016-12-16T04:11:44.385Z,6.35
2016-12-16T04:13:17.916Z,6.29
2016-12-16T04:14:46.073Z,6.56
2016-12-16T04:16:00.441Z,6.53
2016-12-16T04:17:28.487Z,6.47
2016-12-16T04:19:01.821Z,6.47
2016-12-16T04:20:35.558Z,6.44
2016-12-16T04:22:09.187Z,6.41
2016-12-16T04:23:42.439Z,6.35
2016-12-16T04:25:16.031Z,6.38
2016-12-16T04:26:50.172Z,6.38
2016-12-16T04:28:23.717Z,6.49
2016-12-16T04:29:57.095Z,6.47
2016-12-16T04:31:25.526Z,6.28
2016-12-16T04:32:59.826Z,6.35
2016-12-16T04:34:33.100Z,6.31
2016-12-16T04:36:06.669Z,6.31
2016-12-16T04:37:39.999Z,6.31
2016-12-16T04:39:14.027Z,6.41
2016-12-16T04:40:48.690Z,6.41
2016-12-16T04:42:22.009Z,6.46
2016-12-16T04:43:55.733Z,6.49
2016-12-16T04:45:29.534Z,6.47
2016-12-16T04:47:03.145Z,6.46
2016-12-16T04:48:36.518Z,6.46
2016-12-16T04:50:10.133Z,6.41
2016-12-16T04:52:03.076Z,6.26
2016-12-16T04:53:39.068Z,6.09
2016-12-16T04:55:12.669Z,6.12
2016-12-16T04:56:46.558Z,5.99
2016-12-16T04:58:19.802Z,6.01
2016-12-16T04:59:53.402Z,5.94
2016-12-16T05:01:26.808Z,6.07
2016-12-16T05:03:00.087Z,6.06
2016-12-16T05:04:33.893Z,6.06
2016-12-16T05:06:07.473Z,6.06
2016-12-16T05:07:40.699Z,6.02
2016-12-16T05:09:14.144Z,5.95
2016-12-16T05:10:48.604Z,5.88
2016-12-16T05:12:22.288Z,5.83
2016-12-16T05:13:55.884Z,5.73
2016-12-16T05:15:48.470Z,5.54
2016-12-16T05:17:22.420Z,5.58
2016-12-16T05:18:55.959Z,5.51
2016-12-16T05:20:29.302Z,5.56
2016-12-16T05:22:03.521Z,5.56
2016-12-16T05:23:36.841Z,5.56
2016-12-16T05:25:10.280Z,5.61
2016-12-16T05:26:45.519Z,5.65
2016-12-16T05:28:19.248Z,5.65
2016-12-16T05:29:53.170Z,5.69
2016-12-16T05:31:26.850Z,5.72
2016-12-16T05:33:00.459Z,5.79
2016-12-16T05:34:34.739Z,5.94
2016-12-16T05:36:28.261Z,5.92
2016-12-16T05:38:03.220Z,5.97
2016-12-16T05:39:37.062Z,5.99
2016-12-16T05:41:10.842Z,5.97
2016-12-16T05:42:44.572Z,5.83
2016-12-16T05:44:18.303Z,5.91
2016-12-16T05:45:51.756Z,5.88
2016-12-16T05:47:25.160Z,5.98
2016-12-16T05:48:58.748Z,6.02
2016-12-16T05:50:28.249Z,5.98
2016-12-16T05:52:01.907Z,5.9
2016-12-16T05:53:37.285Z,5.95
2016-12-16T05:55:10.642Z,5.92
2016-12-16T05:56:44.968Z,6.01
2016-12-16T05:58:18.548Z,5.98
2016-12-16T05:59:51.909Z,5.84
2016-12-16T06:01:25.943Z,5.92
2016-12-16T06:03:19.224Z,5.92
2016-12-16T06:04:53.307Z,5.95
2016-12-16T06:06:26.840Z,6.06
2016-12-16T06:08:00.150Z,6.2
2016-12-16T06:09:33.729Z,6.19
2016-12-16T06:11:07.260Z,6.17
2016-12-16T06:12:40.794Z,6.16
2016-12-16T06:14:14.914Z,6.13
2016-12-16T06:15:48.234Z,6.09
2016-12-16T06:17:21.585Z,6.05
2016-12-16T06:18:55.787Z,6.02
2016-12-16T06:20:29.384Z,6.16
2016-12-16T06:22:30.812Z,6.12
2016-12-16T06:24:04.089Z,6.06
2016-12-16T06:25:37.646Z,6.01
2016-12-16T06:27:11.012Z,5.98
2016-12-16T06:28:45.258Z,6.06
2016-12-16T06:30:18.826Z,6.09
2016-12-16T06:31:54.419Z,6.09
2016-12-16T06:33:28.779Z,6.09
2016-12-16T06:35:02.575Z,6.01
2016-12-16T06:36:36.605Z,6.09
2016-12-16T06:38:10.154Z,6.25
2016-12-16T06:39:43.408Z,6.06
2016-12-16T06:41:36.557Z,5.99
2016-12-16T06:43:09.953Z,6.07
2016-12-16T06:44:43.721Z,6.02
2016-12-16T06:46:17.129Z,5.91
2016-12-16T06:47:50.700Z,6.01
2016-12-16T06:49:24.099Z,6.19
2016-12-16T06:50:58.000Z,6.17
2016-12-16T06:52:31.241Z,6.16
2016-12-16T06:54:04.990Z,6.12
2016-12-16T06:55:38.697Z,6.16
2016-12-16T06:57:12.229Z,6.2
2016-12-16T06:58:46.009Z,6.2
2016-12-16T07:00:20.045Z,6.26
2016-12-16T07:01:53.676Z,6.2
2016-12-16T07:03:27.628Z,6.22
2016-12-16T07:05:01.173Z,6.34
2016-12-16T07:06:34.567Z,6.32
2016-12-16T07:08:27.718Z,6.17
2016-12-16T07:10:01.896Z,6.19
2016-12-16T07:11:36.141Z,6.17
2016-12-16T07:13:09.674Z,6.19
2016-12-16T07:14:42.986Z,6.26
2016-12-16T07:16:16.810Z,6.2
2016-12-16T07:17:50.449Z,6.2
2016-12-16T07:19:24.884Z,6.25
2016-12-16T07:20:58.150Z,6.15
2016-12-16T07:22:32.313Z,6.09
2016-12-16T07:24:05.800Z,6.01
2016-12-16T07:25:39.766Z,6.1
2016-12-16T07:27:13.063Z,6.12
2016-12-16T07:28:46.710Z,6.16
2016-12-16T07:30:20.042Z,6.32
2016-12-16T07:31:53.619Z,6.17
2016-12-16T07:33:47.188Z,6.31
2016-12-16T07:35:20.453Z,6.2
2016-12-16T07:36:54.402Z,6.28
2016-12-16T07:38:27.955Z,6.2
2016-12-16T07:40:01.468Z,6.28
2016-12-16T07:41:34.697Z,6.28
2016-12-16T07:43:08.315Z,6.35
2016-12-16T07:44:41.891Z,6.31
2016-12-16T07:46:15.158Z,6.39
2016-12-16T07:47:51.268Z,6.43
2016-12-16T07:49:49.389Z,6.31
2016-12-16T07:51:48.582Z,6.15
2016-12-16T07:53:24.186Z,6.17
2016-12-16T07:54:58.002Z,6.2
2016-12-16T07:56:31.348Z,6.29
2016-12-16T07:58:05.741Z,6.29
2016-12-16T07:59:40.373Z,6.34
2016-12-16T08:01:15.009Z,6.32
2016-12-16T08:02:48.610Z,6.44
2016-12-16T08:04:22.426Z,6.32
2016-12-16T08:05:57.284Z,6.36
2016-12-16T08:07:30.866Z,6.22
2016-12-16T08:09:04.528Z,6.28
2016-12-16T08:10:34.909Z,6.25
2016-12-16T08:12:09.066Z,6.28
2016-12-16T08:13:42.781Z,6.36
2016-12-16T08:15:36.539Z,6.49
2016-12-16T08:17:10.114Z,6.44
2016-12-16T08:18:45.935Z,6.36
2016-12-16T08:20:20.056Z,6.22
2016-12-16T08:21:53.564Z,6.26
2016-12-16T08:23:27.095Z,6.34
2016-12-16T08:24:57.170Z,6.43
2016-12-16T08:26:30.476Z,6.36
2016-12-16T08:28:04.379Z,6.26
2016-12-16T08:29:38.048Z,6.17
2016-12-16T08:31:11.577Z,6.28
2016-12-16T08:32:44.923Z,6.26
2016-12-16T08:34:18.498Z,6.29
2016-12-16T08:35:52.287Z,6.34
2016-12-16T08:37:26.860Z,6.44
2016-12-16T08:39:00.673Z,6.46
2016-12-16T08:40:34.113Z,6.49
2016-12-16T08:42:27.501Z,6.39
2016-12-16T08:44:01.765Z,6.25
2016-12-16T08:45:35.885Z,6.17
2016-12-16T08:47:09.515Z,6.09
2016-12-16T08:48:43.132Z,6.12
2016-12-16T08:50:16.912Z,6.15
2016-12-16T08:51:50.258Z,6.12
2016-12-16T08:53:23.955Z,6.01
2016-12-16T08:54:54.987Z,6.01
2016-12-16T08:56:28.554Z,6.09
2016-12-16T08:58:02.982Z,6.05
2016-12-16T08:59:36.848Z,6.02
2016-12-16T09:01:10.172Z,6.05
2016-12-16T09:02:43.994Z,6.25
2016-12-16T09:04:17.875Z,6.07
2016-12-16T09:05:51.127Z,6.07
2016-12-16T09:07:24.520Z,5.97
2016-12-16T09:08:58.322Z,5.92
2016-12-16T09:10:31.919Z,6.06
2016-12-16T09:12:00.254Z,5.99
2016-12-16T09:13:33.952Z,5.98
2016-12-16T09:15:08.303Z,5.95
2016-12-16T09:16:41.692Z,5.92
2016-12-16T09:18:15.589Z,5.9
2016-12-16T09:19:49.268Z,5.87
2016-12-16T09:21:42.044Z,5.95
2016-12-16T09:23:23.997Z,6.09
2016-12-16T09:24:58.059Z,6.07
2016-12-16T09:26:31.735Z,5.97
2016-12-16T09:28:05.065Z,6.01
2016-12-16T09:29:57.787Z,6.15
2016-12-16T09:31:32.081Z,6.15
2016-12-16T09:33:05.741Z,6.07
2016-12-16T09:34:39.619Z,5.98
2016-12-16T09:36:13.001Z,5.83
2016-12-16T09:37:47.354Z,6.01
2016-12-16T09:39:21.426Z,5.99
2016-12-16T09:40:55.018Z,5.92
2016-12-16T09:42:28.420Z,6.01
2016-12-16T09:44:01.960Z,5.97
2016-12-16T09:45:35.690Z,5.92
2016-12-16T09:47:09.897Z,5.98
2016-12-16T09:49:04.928Z,5.97
2016-12-16T09:50:38.289Z,5.88
2016-12-16T09:52:12.132Z,5.72
2016-12-16T09:53:45.919Z,5.73
2016-12-16T09:55:19.213Z,5.74
2016-12-16T09:56:52.828Z,5.61
2016-12-16T09:58:26.419Z,5.61
2016-12-16T09:59:59.957Z,5.79
2016-12-16T10:01:33.602Z,5.88
2016-12-16T10:03:07.139Z,6.01
2016-12-16T10:04:41.177Z,5.91
2016-12-16T10:06:14.698Z,5.81
2016-12-16T10:07:48.102Z,5.8
2016-12-16T10:09:21.335Z,5.77
2016-12-16T10:10:55.244Z,5.72
2016-12-16T10:12:28.903Z,5.81
2016-12-16T10:14:02.216Z,5.87
2016-12-16T10:15:35.503Z,5.8
2016-12-16T10:17:08.858Z,5.76
2016-12-16T10:19:03.531Z,5.9
2016-12-16T10:20:37.157Z,5.84
2016-12-16T10:22:10.950Z,5.81
2016-12-16T10:23:44.469Z,5.83
2016-12-16T10:25:18.076Z,5.98
2016-12-16T10:26:52.198Z,6.06
2016-12-16T10:28:25.855Z,5.84
2016-12-16T10:29:59.529Z,5.88
2016-12-16T10:31:33.939Z,5.8
2016-12-16T10:33:08.534Z,5.99
2016-12-16T10:35:02.115Z,5.97
2016-12-16T10:36:36.158Z,5.97
2016-12-16T10:38:10.123Z,5.94
2016-12-16T10:39:44.728Z,6.07
2016-12-16T10:41:20.438Z,5.97
2016-12-16T10:42:54.389Z,5.83
2016-12-16T10:44:28.205Z,5.84
2016-12-16T10:46:01.821Z,5.84
2016-12-16T10:47:58.115Z,5.84
2016-12-16T10:49:31.812Z,5.84
2016-12-16T10:51:05.382Z,5.94
2016-12-16T10:52:39.042Z,5.88
2016-12-16T10:54:13.681Z,5.84
2016-12-16T10:55:47.594Z,5.83
2016-12-16T10:57:21.255Z,5.92
2016-12-16T10:58:54.941Z,5.92
2016-12-16T11:00:29.143Z,5.99
2016-12-16T11:02:03.766Z,6.05
2016-12-16T11:03:37.633Z,6.09
2016-12-16T11:05:10.998Z,5.83
2016-12-16T11:06:40.489Z,5.97
2016-12-16T11:08:14.462Z,5.94
2016-12-16T11:09:47.992Z,6.02
2016-12-16T11:11:49.566Z,5.9
2016-12-16T11:13:23.860Z,5.97
2016-12-16T11:14:57.397Z,6.05
2016-12-16T11:16:30.755Z,6.05
2016-12-16T11:18:04.067Z,6.09
2016-12-16T11:19:38.227Z,6.2
2016-12-16T11:21:12.609Z,6.15
2016-12-16T11:22:46.359Z,6.09
2016-12-16T11:24:20.132Z,5.94
2016-12-16T11:26:13.771Z,5.88
2016-12-16T11:27:58.374Z,6.01
2016-12-16T11:29:51.402Z,6.01
2016-12-16T11:31:25.657Z,6.09
2016-12-16T11:32:59.064Z,6.02
2016-12-16T11:34:33.185Z,6.02
2016-12-16T11:36:07.331Z,5.98
2016-12-16T11:37:41.786Z,6.01
2016-12-16T11:39:15.789Z,6.06
2016-12-16T11:40:49.651Z,6.09
2016-12-16T11:42:23.109Z,5.94
2016-12-16T11:43:56.722Z,5.87
2016-12-16T11:45:30.694Z,5.79
2016-12-16T11:47:04.836Z,5.8
2016-12-16T11:48:58.258Z,5.69
2016-12-16T11:50:32.451Z,5.76
2016-12-16T11:52:06.264Z,5.76
2016-12-16T11:53:39.802Z,5.79
2016-12-16T11:55:14.280Z,5.84
2016-12-16T11:56:48.081Z,5.69
2016-12-16T11:58:21.491Z,5.56
2016-12-16T11:59:55.058Z,5.59
2016-12-16T12:01:29.683Z,5.7
2016-12-16T12:03:03.371Z,5.69
2016-12-16T12:04:37.310Z,5.7
2016-12-16T12:06:10.864Z,5.76
2016-12-16T12:08:04.543Z,5.88
2016-12-16T12:09:38.661Z,5.7
2016-12-16T12:11:12.335Z,5.88
2016-12-16T12:12:46.640Z,5.92
2016-12-16T12:14:20.892Z,5.9
2016-12-16T12:15:56.411Z,6.01
2016-12-16T12:17:30.350Z,6.17
2016-12-16T12:19:04.659Z,6.26
2016-12-16T12:20:38.413Z,6.2
2016-12-16T12:22:12.228Z,6.17
2016-12-16T12:23:46.364Z,6.13
2016-12-16T12:25:21.267Z,6.19
2016-12-16T12:27:14.440Z,6.07
2016-12-16T12:28:48.390Z,5.9
2016-12-16T12:30:22.836Z,5.88
2016-12-16T12:31:56.549Z,5.87
2016-12-16T12:33:30.024Z,5.8
2016-12-16T12:35:03.999Z,5.9
2016-12-16T12:36:37.728Z,6.01
2016-12-16T12:38:11.319Z,5.95
2016-12-16T12:39:44.973Z,6.09
2016-12-16T12:41:14.833Z,6.05
2016-12-16T12:42:48.906Z,6.06
2016-12-16T12:44:22.790Z,6.1
2016-12-16T12:45:56.354Z,6.07
2016-12-16T12:47:30.427Z,5.84
2016-12-16T12:49:04.144Z,5.69
2016-12-16T12:50:38.674Z,5.69
2016-12-16T12:52:32.773Z,5.69
2016-12-16T12:54:06.339Z,5.72
2016-12-16T12:55:39.982Z,5.67
2016-12-16T12:57:14.071Z,5.74
2016-12-16T12:58:47.788Z,5.88
2016-12-16T13:00:21.315Z,5.94
2016-12-16T13:01:57.695Z,6.02
2016-12-16T13:03:31.830Z,6.05
2016-12-16T13:05:05.504Z,6.22
2016-12-16T13:06:41.362Z,6.25
2016-12-16T13:08:15.970Z,6.22
2016-12-16T13:09:49.582Z,6.26
2016-12-16T13:11:49.638Z,6.06
2016-12-16T13:13:23.748Z,6.01
2016-12-16T13:14:53.663Z,5.97
2016-12-16T13:16:27.467Z,5.87
2016-12-16T13:18:01.465Z,5.83
2016-12-16T13:19:34.911Z,5.83
2016-12-16T13:21:08.701Z,5.83
2016-12-16T13:22:42.133Z,5.79
2016-12-16T13:24:16.233Z,5.74
2016-12-16T13:25:50.186Z,5.7
2016-12-16T13:27:23.556Z,5.62
2016-12-16T13:28:58.160Z,5.67
2016-12-16T13:30:50.829Z,5.76
2016-12-16T13:32:25.173Z,5.7
2016-12-16T13:33:58.640Z,5.65
2016-12-16T13:35:32.568Z,5.67
2016-12-16T13:37:06.176Z,5.56
2016-12-16T13:38:35.142Z,5.49
2016-12-16T13:40:08.614Z,5.58
2016-12-16T13:41:42.887Z,5.52
2016-12-16T13:42:57.114Z,5.44
2016-12-16T13:44:30.901Z,5.41
2016-12-16T13:46:04.273Z,5.37
2016-12-16T13:47:38.203Z,5.37
2016-12-16T13:49:31.291Z,5.38
2016-12-16T13:51:04.850Z,5.36
2016-12-16T13:52:38.616Z,5.22
2016-12-16T13:54:13.043Z,5.25
2016-12-16T13:55:46.706Z,5.28
2016-12-16T13:57:20.454Z,5.25
2016-12-16T13:58:54.063Z,5.26
2016-12-16T14:00:28.025Z,5.23
2016-12-16T14:02:02.613Z,5.28
2016-12-16T14:03:36.329Z,5.25
2016-12-16T14:05:10.100Z,5.25
2016-12-16T14:06:44.384Z,5.26
2016-12-16T14:08:37.939Z,5.31
2016-12-16T14:10:17.920Z,5.29
2016-12-16T14:11:54.054Z,5.29
2016-12-16T14:13:27.706Z,5.28
2016-12-16T14:15:20.580Z,5.16
2016-12-16T14:16:54.837Z,5.08
2016-12-16T14:18:28.423Z,5.19
2016-12-16T14:20:03.599Z,5.08
2016-12-16T14:21:37.901Z,5.1
2016-12-16T14:23:11.499Z,5.13
2016-12-16T14:24:44.999Z,5.05
2016-12-16T14:26:15.304Z,5.12
2016-12-16T14:27:53.326Z,5.01
2016-12-16T14:29:27.732Z,5.15
2016-12-16T14:31:21.764Z,5.19
2016-12-16T14:32:56.227Z,5.2
2016-12-16T14:34:30.188Z,5.13
2016-12-16T14:36:04.227Z,5.07
2016-12-16T14:37:40.069Z,5.15
2016-12-16T14:39:13.852Z,5.07
2016-12-16T14:40:48.962Z,5.18
2016-12-16T14:42:23.395Z,5.16
2016-12-16T14:44:16.697Z,5.19
2016-12-16T14:45:47.744Z,5.15
2016-12-16T14:47:02.090Z,5.13
2016-12-16T14:48:56.638Z,4.95
2016-12-16T14:50:32.502Z,5.01
2016-12-16T14:52:06.374Z,5.05
2016-12-16T14:53:40.276Z,5.02
2016-12-16T14:55:14.185Z,5.13
2016-12-16T14:56:48.407Z,4.94
2016-12-16T14:58:22.750Z,4.84
2016-12-16T15:00:16.863Z,4.83
2016-12-16T15:01:50.493Z,4.66
2016-12-16T15:03:19.169Z,4.64
2016-12-16T15:04:33.856Z,4.56
2016-12-16T15:06:09.388Z,4.57
2016-12-16T15:07:43.173Z,4.58
2016-12-16T15:09:36.634Z,4.58
2016-12-16T15:11:10.901Z,4.5
2016-12-16T15:12:44.789Z,4.56
2016-12-16T15:14:18.847Z,4.68
2016-12-16T15:15:46.970Z,4.6
2016-12-16T15:17:22.032Z,4.56
2016-12-16T15:18:55.792Z,4.58
2016-12-16T15:20:29.504Z,4.58
2016-12-16T15:22:03.173Z,4.64
2016-12-16T15:23:37.718Z,4.52
2016-12-16T15:25:11.534Z,4.63
2016-12-16T15:26:44.854Z,4.6
2016-12-16T15:28:18.782Z,4.56
2016-12-16T15:29:53.324Z,4.61
2016-12-16T15:31:27.491Z,4.63
2016-12-16T15:33:00.782Z,4.66
2016-12-16T15:34:55.679Z,4.46
2016-12-16T15:36:30.164Z,4.57
2016-12-16T15:38:03.830Z,4.56
2016-12-16T15:39:37.653Z,4.57
2016-12-16T15:41:11.339Z,4.5
2016-12-16T15:42:45.310Z,4.49
2016-12-16T15:44:19.232Z,4.66
2016-12-16T15:46:18.186Z,4.63
2016-12-16T15:47:56.582Z,4.49
2016-12-16T15:49:30.504Z,4.46
2016-12-16T15:51:04.209Z,4.43
2016-12-16T15:52:38.350Z,4.43
2016-12-16T15:54:12.033Z,4.38
2016-12-16T15:55:45.441Z,4.48
2016-12-16T15:57:38.412Z,4.5
2016-12-16T15:59:13.201Z,4.32
2016-12-16T16:00:51.008Z,4.28
2016-12-16T16:02:24.537Z,4.43
2016-12-16T16:03:58.599Z,4.43
2016-12-16T16:05:33.231Z,4.42
2016-12-16T16:07:06.957Z,4.5
2016-12-16T16:09:00.009Z,4.5
2016-12-16T16:10:29.198Z,4.46
2016-12-16T16:11:45.502Z,4.42
2016-12-16T16:13:38.903Z,4.45
2016-12-16T16:15:12.637Z,4.36
2016-12-16T16:16:46.839Z,4.43
2016-12-16T16:18:20.502Z,4.36
2016-12-16T16:19:54.557Z,4.27
2016-12-16T16:21:28.019Z,4.28
2016-12-16T16:23:02.332Z,4.28
2016-12-16T16:24:38.372Z,4.25
2016-12-16T16:26:12.486Z,4.32
2016-12-16T16:27:46.157Z,4.32
2016-12-16T16:29:39.251Z,4.25
2016-12-16T16:31:13.090Z,4.4
2016-12-16T16:32:46.956Z,4.3
2016-12-16T16:34:20.989Z,4.27
2016-12-16T16:35:54.640Z,4.22
2016-12-16T16:37:28.010Z,4.13
2016-12-16T16:39:02.196Z,4.3
2016-12-16T16:42:12.093Z,4.14
2016-12-16T16:43:45.858Z,4.3
2016-12-16T16:45:20.035Z,4.27
2016-12-16T16:47:13.278Z,4.4
2016-12-16T16:48:46.936Z,4.28
2016-12-16T16:50:21.320Z,4.27
2016-12-16T16:51:55.178Z,4.39
2016-12-16T16:53:29.550Z,4.2
2016-12-16T16:55:04.008Z,4.13
2016-12-16T16:56:37.874Z,4.22
2016-12-16T16:58:11.808Z,4.1
2016-12-16T16:59:45.744Z,4.16
2016-12-16T17:01:19.453Z,4.06
2016-12-16T17:02:53.265Z,3.94
2016-12-16T17:04:46.850Z,4.22
2016-12-16T17:06:21.680Z,4.27
2016-12-16T17:07:56.661Z,4.28
2016-12-16T17:09:30.652Z,4.14
2016-12-16T17:11:04.587Z,4.21
2016-12-16T17:12:38.626Z,4.25
2016-12-16T17:14:12.512Z,4.36
2016-12-16T17:15:47.035Z,4.3
2016-12-16T17:17:42.329Z,4.27
2016-12-16T17:19:17.890Z,4.42
2016-12-16T17:20:52.849Z,4.34
2016-12-16T17:22:27.269Z,4.42
2016-12-16T17:24:01.333Z,4.48
2016-12-16T17:25:55.932Z,4.46
2016-12-16T17:27:33.789Z,4.38
2016-12-16T17:29:12.118Z,4.45
2016-12-16T17:30:45.743Z,4.3
2016-12-16T17:32:19.387Z,4.45
2016-12-16T17:34:13.408Z,4.43
2016-12-16T17:35:47.867Z,4.49
2016-12-16T17:37:21.850Z,4.39
2016-12-16T17:38:59.927Z,4.43
2016-12-16T17:40:34.292Z,4.39
2016-12-16T17:42:08.483Z,4.39
2016-12-16T17:43:36.759Z,4.38
2016-12-16T17:45:10.374Z,4.48
2016-12-16T17:46:44.184Z,4.57
2016-12-16T17:48:18.726Z,4.5
2016-12-16T17:49:52.184Z,4.45
2016-12-16T17:51:26.130Z,4.46
2016-12-16T17:53:19.000Z,4.38
2016-12-16T17:54:52.900Z,4.45
2016-12-16T17:56:27.809Z,4.34
2016-12-16T17:58:01.666Z,4.28
2016-12-16T17:59:35.663Z,4.24
2016-12-16T18:01:09.702Z,4.28
2016-12-16T18:02:43.181Z,4.27
2016-12-16T18:04:20.531Z,4.31
2016-12-16T18:06:13.480Z,4.28
2016-12-16T18:10:00.451Z,4.28
2016-12-16T18:11:34.202Z,4.28
2016-12-16T18:13:28.329Z,4.27
2016-12-16T18:15:02.376Z,4.31
2016-12-16T18:16:36.902Z,4.38
2016-12-16T18:18:06.431Z,4.43
2016-12-16T18:19:41.179Z,4.45
2016-12-16T18:21:14.921Z,4.5
2016-12-16T18:22:51.618Z,4.53
2016-12-16T18:24:26.923Z,4.53
2016-12-16T18:26:00.475Z,4.52
2016-12-16T18:27:33.879Z,4.53
2016-12-16T18:29:07.779Z,4.49
2016-12-16T18:30:41.279Z,4.52
2016-12-16T18:32:15.328Z,4.5
2016-12-16T18:33:44.044Z,4.49
2016-12-16T18:35:18.395Z,4.5
2016-12-16T18:36:52.366Z,4.5
2016-12-16T18:38:26.411Z,4.49
2016-12-16T18:40:00.123Z,4.5
2016-12-16T18:41:29.217Z,4.48
2016-12-16T18:43:03.556Z,4.5
2016-12-16T18:44:54.974Z,4.49
2016-12-16T18:46:10.249Z,4.52
2016-12-16T18:48:04.763Z,4.36
2016-12-16T18:49:41.597Z,4.42
2016-12-16T18:51:16.329Z,4.48
2016-12-16T18:52:50.207Z,4.48
2016-12-16T18:54:25.010Z,4.32
2016-12-16T18:55:59.508Z,4.49
2016-12-16T18:57:33.230Z,4.48
2016-12-16T18:59:26.170Z,4.56
2016-12-16T19:01:00.071Z,4.63
2016-12-16T19:02:35.115Z,4.49
2016-12-16T19:04:09.063Z,4.5
2016-12-16T19:05:42.856Z,4.49
2016-12-16T19:07:17.292Z,4.52
2016-12-16T19:08:52.235Z,4.39
2016-12-16T19:10:25.925Z,4.4
2016-12-16T19:11:59.551Z,4.48
2016-12-16T19:13:34.082Z,4.56
2016-12-16T19:15:02.350Z,4.52
2016-12-16T19:16:32.065Z,4.68
2016-12-16T19:18:05.837Z,4.63
2016-12-16T19:19:39.426Z,4.52
2016-12-16T19:21:13.519Z,4.56
2016-12-16T19:22:47.493Z,4.52
2016-12-16T19:24:21.948Z,4.36
2016-12-16T19:25:56.143Z,4.32
2016-12-16T19:27:30.207Z,4.49
2016-12-16T19:29:23.338Z,4.42
2016-12-16T19:30:56.768Z,4.42
2016-12-16T19:32:30.807Z,4.31
2016-12-16T19:34:05.058Z,4.42
2016-12-16T19:35:40.455Z,4.38
2016-12-16T19:37:14.484Z,4.38
2016-12-16T19:38:48.547Z,4.52
2016-12-16T19:40:23.313Z,4.56
2016-12-16T19:41:57.382Z,4.63
2016-12-16T19:43:53.039Z,4.6
2016-12-16T19:45:27.982Z,4.56
2016-12-16T19:47:01.633Z,4.57
2016-12-16T19:48:35.451Z,4.56
2016-12-16T19:50:09.922Z,4.5
2016-12-16T19:51:44.718Z,4.58
2016-12-16T19:53:19.120Z,4.43
2016-12-16T19:54:53.386Z,4.5
2016-12-16T19:56:28.114Z,4.56
2016-12-16T19:58:02.706Z,4.48
2016-12-16T19:59:36.847Z,4.32
2016-12-16T20:01:06.904Z,4.31
2016-12-16T20:02:41.348Z,4.49
2016-12-16T20:04:15.218Z,4.42
2016-12-16T20:05:49.067Z,4.48
2016-12-16T20:07:23.541Z,4.43
2016-12-16T20:08:57.860Z,4.27
2016-12-16T20:10:32.586Z,4.2
2016-12-16T20:12:01.256Z,4.14
2016-12-16T20:13:57.151Z,4.31
2016-12-16T20:15:11.622Z,4.22
2016-12-16T20:17:06.108Z,4.2
2016-12-16T20:18:39.818Z,4.3
2016-12-16T20:20:13.610Z,4.31
2016-12-16T20:21:48.019Z,4.28
2016-12-16T20:23:22.184Z,4.24
2016-12-16T20:24:55.966Z,4.32
2016-12-16T20:26:29.786Z,4.42
2016-12-16T20:28:03.637Z,4.3
2016-12-16T20:29:38.259Z,4.46
2016-12-16T20:31:32.410Z,4.42
2016-12-16T20:33:06.436Z,4.42
2016-12-16T20:34:42.986Z,4.52
2016-12-16T20:36:17.523Z,4.43
2016-12-16T20:37:48.005Z,4.48
2016-12-16T20:39:23.403Z,4.5
2016-12-16T20:40:58.234Z,4.53
2016-12-16T20:42:32.547Z,4.58
2016-12-16T20:44:06.834Z,4.48
2016-12-16T20:45:40.915Z,4.46
2016-12-16T20:47:40.716Z,4.49
2016-12-16T20:49:19.459Z,4.56
2016-12-16T20:50:55.927Z,4.63
2016-12-16T20:52:33.069Z,4.6
2016-12-16T20:54:06.400Z,4.74
2016-12-16T20:55:40.200Z,4.66
2016-12-16T20:57:14.155Z,4.61
2016-12-16T20:58:48.510Z,4.64
2016-12-16T21:00:22.769Z,4.82
2016-12-16T21:01:56.693Z,4.68
2016-12-16T21:03:50.293Z,4.6
2016-12-16T21:05:24.011Z,4.7
2016-12-16T21:06:52.654Z,4.58
2016-12-16T21:08:08.493Z,4.67
2016-12-16T21:09:42.263Z,4.66
2016-12-16T21:11:31.011Z,4.57
2016-12-16T21:12:46.736Z,4.66
2016-12-16T21:14:21.165Z,4.7
2016-12-16T21:16:14.820Z,4.67
2016-12-16T21:17:31.164Z,4.67
2016-12-16T21:19:25.212Z,4.67
2016-12-16T21:21:00.090Z,4.83